Time;durP1;ratioP1;P1;durP2;ratioP2;P2;SDS_P1;SDS_P2;PMS_P1;PMS_P2;Temp;Humidity;BMP_temperature;BMP_pressure;BME280_temperature;BME280_humidity;BME280_pressure;Samples;Min_cycle;Max_cycle;Signal;HPM_P1;HPM_P2
2023/07/29 00:02:23;;;;;;;11.15;6.78;;;14.60;100.00;;;;;;5105171;28;20048;-86
2023/07/29 00:04:50;;;;;;;17.35;6.65;;;14.60;100.00;;;;;;5106763;28;20054;-86
2023/07/29 00:07:16;;;;;;;11.48;6.35;;;14.60;100.00;;;;;;5095769;28;20098;-86
2023/07/29 00:09:43;;;;;;;9.50;6.35;;;14.60;100.00;;;;;;5106560;28;20048;-86
2023/07/29 00:12:10;;;;;;;10.40;5.75;;;14.50;100.00;;;;;;5099678;28;20055;-85
2023/07/29 00:14:37;;;;;;;9.00;5.13;;;14.50;100.00;;;;;;5102578;28;20113;-86
2023/07/29 00:17:04;;;;;;;9.02;4.72;;;14.40;100.00;;;;;;5112040;28;20131;-86
2023/07/29 00:19:32;;;;;;;10.43;4.55;;;14.30;100.00;;;;;;5114718;28;20126;-85
2023/07/29 00:21:59;;;;;;;6.63;4.47;;;14.30;100.00;;;;;;5094687;28;20071;-86
2023/07/29 00:24:25;;;;;;;10.65;4.35;;;14.30;100.00;;;;;;5102869;28;20126;-86
2023/07/29 00:26:52;;;;;;;6.57;4.47;;;14.30;100.00;;;;;;5104319;28;20101;-86
2023/07/29 00:29:19;;;;;;;7.90;4.63;;;14.30;100.00;;;;;;5114535;28;20048;-86
2023/07/29 00:31:46;;;;;;;6.43;4.63;;;14.30;100.00;;;;;;5106483;28;20135;-86
2023/07/29 00:34:17;;;;;;;9.18;5.35;;;14.30;100.00;;;;;;5105925;28;20054;-86
2023/07/29 00:36:44;;;;;;;9.30;5.10;;;14.30;100.00;;;;;;5098045;28;20130;-86
2023/07/29 00:39:11;;;;;;;7.05;4.50;;;14.40;100.00;;;;;;5112511;28;20051;-86
2023/07/29 00:41:37;;;;;;;7.47;4.80;;;14.40;100.00;;;;;;5100108;28;20123;-86
2023/07/29 00:44:04;;;;;;;7.88;5.43;;;14.40;100.00;;;;;;5109025;28;20127;-86
2023/07/29 00:46:34;;;;;;;7.90;5.60;;;14.50;100.00;;;;;;5106192;28;20052;-87
2023/07/29 00:49:02;;;;;;;10.32;5.50;;;14.60;100.00;;;;;;5095483;28;20048;-86
2023/07/29 00:51:29;;;;;;;8.05;5.10;;;14.60;100.00;;;;;;5099614;28;20101;-86
2023/07/29 00:53:56;;;;;;;12.98;6.18;;;14.70;100.00;;;;;;5099442;28;20483;-86
2023/07/29 00:56:22;;;;;;;13.57;5.80;;;14.70;100.00;;;;;;5109264;28;20075;-87
2023/07/29 00:58:51;;;;;;;9.10;5.53;;;14.70;100.00;;;;;;5105881;28;20083;-87
2023/07/29 01:01:18;;;;;;;10.82;6.38;;;14.80;100.00;;;;;;5102223;28;20076;-86
2023/07/29 01:03:45;;;;;;;8.52;5.95;;;14.80;100.00;;;;;;5110457;28;20048;-87
2023/07/29 01:06:31;;;;;;;13.05;7.30;;;14.80;100.00;;;;;;5105477;28;20094;-86
2023/07/29 01:09:30;;;;;;;17.65;7.88;;;14.90;100.00;;;;;;5105278;28;20768;-86
2023/07/29 01:12:24;;;;;;;19.42;8.68;;;14.90;100.00;;;;;;5106172;28;20496;-86
2023/07/29 01:14:50;;;;;;;21.80;8.63;;;14.90;100.00;;;;;;5095807;28;20547;-86
2023/07/29 01:17:31;;;;;;;14.05;7.55;;;14.90;99.90;;;;;;5112330;28;20104;-86
2023/07/29 01:20:07;;;;;;;13.45;6.78;;;14.90;99.80;;;;;;5106484;28;20518;-86
2023/07/29 01:22:36;;;;;;;11.70;6.15;;;14.90;99.50;;;;;;5105017;28;20043;-87
2023/07/29 01:25:04;;;;;;;9.50;6.07;;;14.90;99.30;;;;;;5101229;28;20580;-86
2023/07/29 01:27:30;;;;;;;10.55;6.03;;;14.90;99.30;;;;;;5100539;28;20083;-87
2023/07/29 01:29:58;;;;;;;11.23;6.53;;;14.90;99.60;;;;;;5110915;28;20104;-87
2023/07/29 01:32:31;;;;;;;11.70;6.20;;;15.00;99.80;;;;;;5108942;28;20495;-86
2023/07/29 01:35:26;;;;;;;12.55;6.72;;;15.00;100.00;;;;;;5102086;28;20076;-87
2023/07/29 01:38:00;;;;;;;15.23;7.25;;;15.10;100.00;;;;;;5071796;28;20044;-87
2023/07/29 01:40:28;;;;;;;12.02;6.72;;;15.20;100.00;;;;;;5102121;27;20047;-86
2023/07/29 01:42:56;;;;;;;9.75;5.95;;;15.20;100.00;;;;;;5097058;28;20051;-86
2023/07/29 01:45:26;;;;;;;14.38;7.47;;;15.20;99.90;;;;;;5102513;28;20399;-87
2023/07/29 01:47:52;;;;;;;12.23;6.75;;;15.30;99.70;;;;;;5101794;28;20411;-87
2023/07/29 01:50:20;;;;;;;12.32;6.65;;;15.30;99.90;;;;;;5105385;28;20043;-87
2023/07/29 01:52:46;;;;;;;17.55;7.30;;;15.30;99.80;;;;;;5093523;28;20101;-87
2023/07/29 01:55:13;;;;;;;14.15;8.02;;;15.40;99.70;;;;;;5103838;28;20136;-86
2023/07/29 01:57:40;;;;;;;11.43;6.47;;;15.40;99.80;;;;;;5098678;28;20727;-87
2023/07/29 02:00:08;;;;;;;21.63;6.93;;;15.40;99.70;;;;;;5112230;28;20077;-86
2023/07/29 02:02:35;;;;;;;10.98;7.03;;;15.40;99.40;;;;;;5095424;28;20079;-86
2023/07/29 02:05:02;;;;;;;10.65;6.95;;;15.40;99.40;;;;;;5097906;28;20127;-87
2023/07/29 02:07:29;;;;;;;12.25;6.60;;;15.50;99.50;;;;;;5100360;28;20047;-87
2023/07/29 02:09:56;;;;;;;14.80;6.28;;;15.50;99.20;;;;;;5110772;28;20055;-86
2023/07/29 02:12:22;;;;;;;10.65;6.63;;;15.50;99.60;;;;;;5098425;28;20079;-87
2023/07/29 02:14:49;;;;;;;14.65;6.63;;;15.50;99.70;;;;;;5112202;28;20668;-87
2023/07/29 02:17:17;;;;;;;10.18;6.50;;;15.50;99.70;;;;;;5106775;28;20140;-86
2023/07/29 02:19:44;;;;;;;14.70;6.65;;;15.50;99.70;;;;;;5106806;28;20079;-87
2023/07/29 02:22:14;;;;;;;10.55;7.00;;;15.60;99.60;;;;;;5097588;28;20055;-87
2023/07/29 02:24:41;;;;;;;12.48;6.63;;;15.60;99.40;;;;;;5096739;28;20052;-87
2023/07/29 02:27:08;;;;;;;9.65;6.15;;;15.60;99.40;;;;;;5103182;28;20052;-87
2023/07/29 02:29:35;;;;;;;16.60;6.13;;;15.60;99.40;;;;;;5095398;28;20044;-87
2023/07/29 02:32:02;;;;;;;9.82;5.60;;;15.60;99.40;;;;;;5097437;28;20079;-87
2023/07/29 02:34:29;;;;;;;6.47;4.85;;;15.60;99.50;;;;;;5103773;28;20122;-87
2023/07/29 02:36:56;;;;;;;10.48;5.90;;;15.70;99.90;;;;;;5093511;28;20046;-87
2023/07/29 02:39:23;;;;;;;12.98;5.78;;;15.70;99.80;;;;;;5094996;28;20127;-87
2023/07/29 02:41:50;;;;;;;12.30;6.60;;;15.70;99.60;;;;;;5096929;28;20044;-86
2023/07/29 02:44:19;;;;;;;12.35;6.30;;;15.70;99.40;;;;;;5102090;28;20122;-87
2023/07/29 02:46:46;;;;;;;9.43;6.47;;;15.70;99.40;;;;;;5095862;28;20104;-87
2023/07/29 02:49:13;;;;;;;12.50;6.03;;;15.70;99.40;;;;;;5106822;28;20074;-87
2023/07/29 02:51:40;;;;;;;11.07;6.22;;;15.70;99.50;;;;;;5105775;28;20101;-88
2023/07/29 02:54:06;;;;;;;14.23;6.13;;;15.80;99.50;;;;;;5094167;28;20671;-88
2023/07/29 02:56:34;;;;;;;11.98;5.45;;;15.80;99.40;;;;;;5093676;28;20044;-87
2023/07/29 02:59:01;;;;;;;10.88;5.40;;;15.70;99.20;;;;;;5107826;28;20488;-87
2023/07/29 03:01:28;;;;;;;13.02;5.30;;;15.80;99.30;;;;;;5100747;28;20084;-87
2023/07/29 03:03:55;;;;;;;13.50;5.75;;;15.80;99.30;;;;;;5094342;28;20575;-87
2023/07/29 03:06:22;;;;;;;10.57;5.70;;;15.80;99.40;;;;;;5107561;28;20056;-88
2023/07/29 03:08:49;;;;;;;12.30;5.05;;;15.70;99.20;;;;;;5110646;27;20138;-87
2023/07/29 03:11:16;;;;;;;10.88;5.40;;;15.70;99.00;;;;;;5114237;28;20075;-87
2023/07/29 03:13:43;;;;;;;14.43;5.78;;;15.70;99.30;;;;;;5112305;28;20408;-88
2023/07/29 03:16:12;;;;;;;9.57;5.43;;;15.70;99.60;;;;;;5115163;28;20100;-87
2023/07/29 03:18:39;;;;;;;11.27;5.57;;;15.70;99.90;;;;;;5104756;28;20047;-87
2023/07/29 03:21:06;;;;;;;11.65;5.60;;;15.80;100.00;;;;;;5109665;28;20131;-88
2023/07/29 03:23:34;;;;;;;10.80;5.50;;;15.80;100.00;;;;;;5112758;28;20051;-87
2023/07/29 03:26:12;;;;;;;15.15;6.15;;;15.70;99.90;;;;;;5117889;28;20080;-87
2023/07/29 03:28:41;;;;;;;7.80;4.72;;;15.80;99.50;;;;;;5106296;28;20090;-87
2023/07/29 03:31:08;;;;;;;11.60;5.78;;;15.80;99.80;;;;;;5109649;28;20105;-88
2023/07/29 03:33:35;;;;;;;11.63;5.85;;;15.70;99.80;;;;;;5115904;28;20142;-88
2023/07/29 03:36:02;;;;;;;10.02;5.65;;;15.80;99.70;;;;;;5117327;28;20114;-88
2023/07/29 03:38:29;;;;;;;9.30;5.18;;;15.70;100.00;;;;;;5106441;28;20075;-87
2023/07/29 03:40:57;;;;;;;9.55;5.00;;;15.70;100.00;;;;;;5098957;28;20768;-88
2023/07/29 03:43:24;;;;;;;8.90;5.97;;;15.70;100.00;;;;;;5106193;28;20052;-89
2023/07/29 03:45:50;;;;;;;10.88;5.30;;;15.70;100.00;;;;;;5108238;28;20436;-87
2023/07/29 03:48:17;;;;;;;10.35;5.70;;;15.60;100.00;;;;;;5107344;28;20653;-87
2023/07/29 03:50:44;;;;;;;9.75;6.28;;;15.60;100.00;;;;;;5111167;28;20066;-86
2023/07/29 03:53:11;;;;;;;12.13;5.85;;;15.60;100.00;;;;;;5115943;28;20043;-85
2023/07/29 03:55:38;;;;;;;9.07;6.65;;;15.60;100.00;;;;;;5111677;28;20126;-85
2023/07/29 03:58:05;;;;;;;11.40;6.70;;;15.60;100.00;;;;;;5101537;28;20048;-86
2023/07/29 04:00:32;;;;;;;10.43;6.32;;;15.60;100.00;;;;;;5103794;28;20054;-85
2023/07/29 04:02:59;;;;;;;10.95;6.60;;;15.60;100.00;;;;;;5117815;28;20512;-85
2023/07/29 04:05:26;;;;;;;8.73;6.22;;;15.60;100.00;;;;;;5116742;28;20051;-85
2023/07/29 04:07:54;;;;;;;11.57;6.60;;;15.70;100.00;;;;;;5116351;28;20047;-86
2023/07/29 04:10:21;;;;;;;16.30;7.28;;;15.70;100.00;;;;;;5114721;28;20132;-86
2023/07/29 04:12:48;;;;;;;12.18;6.97;;;15.70;100.00;;;;;;5104153;28;20489;-86
2023/07/29 04:15:15;;;;;;;12.00;7.18;;;15.80;100.00;;;;;;5110916;28;20135;-85
2023/07/29 04:17:41;;;;;;;12.90;7.43;;;15.80;100.00;;;;;;5102627;28;20047;-85
2023/07/29 04:20:09;;;;;;;12.45;7.88;;;15.80;100.00;;;;;;5109269;28;20445;-86
2023/07/29 04:22:36;;;;;;;16.48;7.95;;;15.90;100.00;;;;;;5099719;28;20044;-86
2023/07/29 04:25:04;;;;;;;14.27;7.32;;;15.90;100.00;;;;;;5102661;28;20058;-86
2023/07/29 04:27:31;;;;;;;18.08;8.68;;;15.90;100.00;;;;;;5106614;27;20048;-87
2023/07/29 04:29:58;;;;;;;14.07;8.65;;;15.90;100.00;;;;;;5109239;28;20058;-86
2023/07/29 04:32:25;;;;;;;17.65;9.20;;;16.00;100.00;;;;;;5104506;28;20149;-86
2023/07/29 04:34:52;;;;;;;14.02;7.53;;;16.00;100.00;;;;;;5108180;28;20104;-85
2023/07/29 04:37:19;;;;;;;13.70;8.50;;;16.10;100.00;;;;;;5105573;28;20048;-86
2023/07/29 04:39:46;;;;;;;16.85;8.88;;;16.10;100.00;;;;;;5114148;28;20048;-86
2023/07/29 04:42:13;;;;;;;15.73;8.77;;;16.20;100.00;;;;;;5104078;28;20854;-87
2023/07/29 04:44:41;;;;;;;13.82;8.63;;;16.30;100.00;;;;;;5101794;28;20646;-86
2023/07/29 04:47:08;;;;;;;14.20;9.00;;;16.40;100.00;;;;;;5105265;28;20134;-86
2023/07/29 04:49:35;;;;;;;20.85;9.15;;;16.50;100.00;;;;;;5106553;28;20046;-87
2023/07/29 04:52:02;;;;;;;14.15;9.48;;;16.70;100.00;;;;;;5113992;28;20062;-87
2023/07/29 04:54:29;;;;;;;18.17;9.63;;;16.80;100.00;;;;;;5109207;28;20054;-86
2023/07/29 04:56:56;;;;;;;16.77;8.52;;;16.90;100.00;;;;;;5105016;28;20538;-87
2023/07/29 04:59:23;;;;;;;13.93;8.98;;;17.10;100.00;;;;;;5096219;28;20151;-87
2023/07/29 05:01:50;;;;;;;14.07;8.63;;;17.20;100.00;;;;;;5108165;28;20091;-87
2023/07/29 05:04:21;;;;;;;12.70;8.63;;;17.30;100.00;;;;;;5099165;28;20043;-86
2023/07/29 05:06:48;;;;;;;14.95;8.10;;;17.50;100.00;;;;;;5105955;28;20368;-86
2023/07/29 05:09:19;;;;;;;13.75;8.65;;;17.70;100.00;;;;;;5098285;28;20054;-87
2023/07/29 05:11:47;;;;;;;13.50;8.50;;;17.90;100.00;;;;;;5095362;28;20064;-87
2023/07/29 05:14:15;;;;;;;10.63;7.00;;;18.10;100.00;;;;;;5103816;28;20094;-87
2023/07/29 05:16:42;;;;;;;16.05;7.65;;;18.20;100.00;;;;;;5107834;28;20063;-87
2023/07/29 05:19:09;;;;;;;11.65;7.97;;;18.30;100.00;;;;;;5098663;28;20093;-87
2023/07/29 05:21:38;;;;;;;11.95;7.88;;;18.30;100.00;;;;;;5106761;28;20374;-87
2023/07/29 05:24:04;;;;;;;10.95;7.50;;;18.40;100.00;;;;;;5110896;28;20055;-87
2023/07/29 05:26:31;;;;;;;12.25;7.25;;;18.40;99.80;;;;;;5105220;28;20128;-87
2023/07/29 05:28:58;;;;;;;10.52;6.55;;;18.40;99.70;;;;;;5108428;28;20124;-85
2023/07/29 05:31:25;;;;;;;11.88;6.18;;;18.50;100.00;;;;;;5098121;28;20560;-85
2023/07/29 05:33:52;;;;;;;10.32;7.03;;;18.50;100.00;;;;;;5101926;28;20184;-85
2023/07/29 05:36:19;;;;;;;11.48;6.13;;;18.70;100.00;;;;;;5110774;28;20050;-85
2023/07/29 05:38:46;;;;;;;13.13;6.18;;;19.00;99.70;;;;;;5102852;28;20076;-85
2023/07/29 05:41:13;;;;;;;9.18;6.70;;;19.20;97.90;;;;;;5104912;28;20040;-85
2023/07/29 05:43:40;;;;;;;10.07;6.25;;;19.40;97.50;;;;;;5103370;28;20138;-85
2023/07/29 05:46:07;;;;;;;13.02;5.53;;;19.50;96.90;;;;;;5099964;28;20048;-85
2023/07/29 05:48:34;;;;;;;9.95;5.38;;;19.50;96.10;;;;;;5107732;28;20043;-85
2023/07/29 05:51:01;;;;;;;9.68;5.65;;;19.60;96.00;;;;;;5106537;28;20534;-85
2023/07/29 05:53:28;;;;;;;9.65;5.35;;;19.60;95.90;;;;;;5109780;28;20100;-85
2023/07/29 05:55:55;;;;;;;7.85;4.97;;;19.70;95.90;;;;;;5111659;28;20429;-85
2023/07/29 05:58:22;;;;;;;10.93;4.85;;;19.80;95.30;;;;;;5104406;28;20105;-85
2023/07/29 06:00:49;;;;;;;8.18;4.45;;;19.80;95.10;;;;;;5094624;28;20097;-85
2023/07/29 06:03:16;;;;;;;8.73;4.88;;;19.90;94.80;;;;;;5098718;28;20044;-86
2023/07/29 06:05:43;;;;;;;9.32;4.75;;;20.00;94.40;;;;;;5097992;28;20511;-85
2023/07/29 06:08:10;;;;;;;7.40;4.53;;;20.00;93.80;;;;;;5103890;28;20048;-85
2023/07/29 06:10:38;;;;;;;6.53;4.60;;;20.00;93.90;;;;;;5109299;28;20048;-86
2023/07/29 06:13:05;;;;;;;8.05;3.90;;;20.20;93.70;;;;;;5107756;28;20049;-85
2023/07/29 06:15:32;;;;;;;5.28;3.85;;;20.40;92.80;;;;;;5110183;28;20483;-85
2023/07/29 06:17:59;;;;;;;7.65;3.85;;;20.60;92.10;;;;;;5108718;28;20545;-85
2023/07/29 06:20:26;;;;;;;5.50;3.60;;;20.90;92.10;;;;;;5095926;28;20061;-85
2023/07/29 06:22:53;;;;;;;8.80;3.63;;;21.40;90.10;;;;;;5091400;28;20052;-85
2023/07/29 06:25:20;;;;;;;5.32;3.85;;;21.50;88.40;;;;;;5106153;28;20479;-85
2023/07/29 06:27:47;;;;;;;5.13;3.90;;;21.60;87.70;;;;;;5104769;28;20048;-85
2023/07/29 06:30:14;;;;;;;5.75;3.90;;;21.80;87.40;;;;;;5101044;28;20051;-83
2023/07/29 06:32:41;;;;;;;6.72;4.35;;;21.90;86.70;;;;;;5102109;28;20078;-84
2023/07/29 06:35:08;;;;;;;10.00;3.65;;;21.90;87.00;;;;;;5100917;28;20053;-86
2023/07/29 06:37:35;;;;;;;5.25;4.03;;;22.00;85.80;;;;;;5104234;28;20075;-85
2023/07/29 06:40:02;;;;;;;6.15;3.60;;;22.00;85.90;;;;;;5101645;28;20047;-85
2023/07/29 06:42:29;;;;;;;3.50;2.85;;;22.10;84.70;;;;;;5108395;28;20051;-84
2023/07/29 06:44:56;;;;;;;5.82;3.63;;;22.20;84.90;;;;;;5104925;28;20078;-85
2023/07/29 06:47:23;;;;;;;5.40;3.53;;;22.20;85.50;;;;;;5098114;28;20060;-84
2023/07/29 06:49:50;;;;;;;6.22;3.38;;;22.40;84.40;;;;;;5111026;28;20055;-84
2023/07/29 06:52:17;;;;;;;3.65;2.72;;;22.60;83.90;;;;;;5107496;28;20567;-85
2023/07/29 06:54:43;;;;;;;7.03;3.15;;;22.80;81.70;;;;;;5099062;28;20136;-85
2023/07/29 06:57:10;;;;;;;5.97;3.90;;;22.80;81.80;;;;;;5105625;28;20126;-84
2023/07/29 06:59:37;;;;;;;7.85;3.17;;;22.70;82.00;;;;;;5107491;28;20094;-84
2023/07/29 07:02:04;;;;;;;6.22;3.03;;;22.80;82.90;;;;;;5092047;28;20047;-84
2023/07/29 07:04:31;;;;;;;4.82;3.30;;;23.20;81.60;;;;;;5097751;28;20077;-84
2023/07/29 07:06:58;;;;;;;6.63;3.88;;;23.20;80.40;;;;;;5097813;28;20105;-85
2023/07/29 07:09:25;;;;;;;5.03;3.47;;;23.40;80.50;;;;;;5099891;28;20134;-85
2023/07/29 07:11:52;;;;;;;5.72;3.55;;;23.70;80.50;;;;;;5106876;28;20052;-84
2023/07/29 07:14:19;;;;;;;9.30;3.83;;;23.70;79.50;;;;;;5107972;28;20054;-85
2023/07/29 07:16:46;;;;;;;4.97;3.65;;;23.70;78.00;;;;;;5102831;28;20135;-86
2023/07/29 07:19:13;;;;;;;9.00;4.93;;;23.60;79.10;;;;;;5100152;28;20105;-85
2023/07/29 07:21:40;;;;;;;8.25;5.03;;;23.30;79.60;;;;;;5101573;28;20086;-85
2023/07/29 07:24:07;;;;;;;7.18;5.15;;;23.30;79.70;;;;;;5109332;28;20043;-84
2023/07/29 07:26:34;;;;;;;6.28;4.70;;;23.50;80.10;;;;;;5105456;28;20112;-85
2023/07/29 07:29:01;;;;;;;10.60;6.00;;;23.50;80.30;;;;;;5110607;28;20134;-85
2023/07/29 07:31:28;;;;;;;7.63;4.82;;;23.70;80.10;;;;;;5102515;28;20677;-84
2023/07/29 07:33:55;;;;;;;10.13;5.78;;;24.00;77.70;;;;;;5105409;28;20044;-86
2023/07/29 07:36:22;;;;;;;5.93;4.82;;;23.70;78.30;;;;;;5100989;28;20047;-85
2023/07/29 07:38:49;;;;;;;7.32;5.28;;;23.50;79.70;;;;;;5095312;28;20197;-86
2023/07/29 07:41:16;;;;;;;9.73;5.53;;;23.30;80.00;;;;;;5095114;28;20116;-85
2023/07/29 07:43:42;;;;;;;6.75;4.90;;;23.80;79.90;;;;;;5102899;28;20509;-85
2023/07/29 07:46:09;;;;;;;5.85;4.53;;;24.40;79.70;;;;;;5093917;28;20450;-85
2023/07/29 07:48:39;;;;;;;6.10;4.32;;;25.20;77.50;;;;;;5109519;28;20628;-85
2023/07/29 07:51:12;;;;;;;6.65;4.15;;;25.80;76.00;;;;;;5107874;28;20047;-85
2023/07/29 07:53:40;;;;;;;6.05;4.10;;;26.30;73.60;;;;;;5112461;28;20051;-85
2023/07/29 07:56:07;;;;;;;8.50;4.78;;;26.00;73.50;;;;;;5104047;28;20129;-85
2023/07/29 07:58:34;;;;;;;8.98;4.55;;;25.90;73.40;;;;;;5096756;28;20414;-85
2023/07/29 08:01:08;;;;;;;7.30;4.90;;;26.10;74.40;;;;;;5106140;28;20075;-86
2023/07/29 08:03:36;;;;;;;6.13;4.63;;;26.20;71.00;;;;;;5096428;28;20059;-84
2023/07/29 08:06:03;;;;;;;10.23;4.88;;;25.60;72.80;;;;;;5094535;28;20060;-85
2023/07/29 08:08:29;;;;;;;9.73;4.78;;;25.30;74.10;;;;;;5103869;28;20484;-86
2023/07/29 08:10:57;;;;;;;7.25;5.07;;;25.20;75.50;;;;;;5105501;28;20082;-86
2023/07/29 08:13:24;;;;;;;7.53;5.25;;;25.10;74.20;;;;;;5093762;28;20067;-86
2023/07/29 08:15:52;;;;;;;11.85;5.82;;;24.80;74.10;;;;;;5105876;28;20043;-88
2023/07/29 08:18:20;;;;;;;8.13;5.68;;;24.50;75.50;;;;;;5102280;28;20097;-87
2023/07/29 08:20:58;;;;;;;11.52;5.93;;;24.40;76.80;;;;;;5098178;28;20047;-86
2023/07/29 08:23:26;;;;;;;12.23;6.07;;;24.40;75.10;;;;;;5107915;28;20040;-89
2023/07/29 08:26:01;;;;;;;12.95;5.72;;;24.50;77.10;;;;;;5094712;28;20056;-89
2023/07/29 08:28:36;;;;;;;7.07;4.93;;;24.40;76.30;;;;;;5104708;28;20093;-89
2023/07/29 08:31:05;;;;;;;7.22;5.25;;;24.80;75.60;;;;;;5098584;28;20047;-89
2023/07/29 08:33:33;;;;;;;14.52;6.47;;;25.00;75.10;;;;;;5110150;28;20052;-88
2023/07/29 08:36:01;;;;;;;9.95;5.10;;;25.10;75.30;;;;;;5113128;28;20062;-88
2023/07/29 08:38:28;;;;;;;22.40;6.30;;;25.10;74.20;;;;;;5099284;28;20112;-88
2023/07/29 08:41:16;;;;;;;7.75;5.72;;;25.10;74.20;;;;;;5094148;28;20075;-88
2023/07/29 08:43:52;;;;;;;10.45;5.30;;;25.20;73.60;;;;;;5114003;28;20060;-89
2023/07/29 08:46:20;;;;;;;10.65;6.28;;;25.20;74.50;;;;;;5109353;28;20183;-89
2023/07/29 08:48:47;;;;;;;10.27;5.50;;;25.10;73.50;;;;;;5107334;28;20047;-89
2023/07/29 08:51:15;;;;;;;6.68;5.35;;;25.00;73.80;;;;;;5101092;28;20177;-88
2023/07/29 08:53:43;;;;;;;7.80;5.60;;;24.80;73.60;;;;;;5112021;28;20063;-89
2023/07/29 08:56:10;;;;;;;8.05;6.00;;;24.70;75.40;;;;;;5111305;28;20054;-88
2023/07/29 08:58:39;;;;;;;7.50;5.40;;;24.60;74.80;;;;;;5095266;28;20138;-88
2023/07/29 09:01:06;;;;;;;10.30;6.22;;;24.50;74.50;;;;;;5111212;28;20047;-88
2023/07/29 09:03:33;;;;;;;12.07;6.95;;;24.20;76.40;;;;;;5098253;28;20052;-88
2023/07/29 09:06:02;;;;;;;12.57;8.15;;;24.10;75.70;;;;;;5105924;28;20043;-88
2023/07/29 09:08:29;;;;;;;12.13;8.07;;;24.00;76.40;;;;;;5098214;28;20067;-89
2023/07/29 09:10:56;;;;;;;12.30;7.60;;;24.00;77.90;;;;;;5100616;28;20492;-89
2023/07/29 09:13:24;;;;;;;10.65;8.45;;;24.10;76.50;;;;;;5106322;28;20403;-88
2023/07/29 09:15:56;;;;;;;13.40;8.75;;;24.10;76.40;;;;;;5105686;28;20105;-89
2023/07/29 09:18:23;;;;;;;13.48;9.00;;;24.10;77.20;;;;;;5101266;28;20062;-88
2023/07/29 09:20:50;;;;;;;13.93;8.55;;;24.20;75.70;;;;;;5095978;28;20787;-87
2023/07/29 09:23:17;;;;;;;14.30;8.35;;;24.50;76.40;;;;;;5107021;28;20048;-89
2023/07/29 09:25:47;;;;;;;11.30;8.10;;;24.70;76.10;;;;;;5100188;28;20079;-88
2023/07/29 09:28:16;;;;;;;12.98;8.43;;;24.70;74.90;;;;;;5106362;28;20055;-88
2023/07/29 09:30:46;;;;;;;16.05;9.15;;;24.60;74.70;;;;;;5098219;28;20090;-89
2023/07/29 09:33:13;;;;;;;10.93;7.85;;;24.50;74.70;;;;;;5099217;28;20067;-89
2023/07/29 09:35:41;;;;;;;15.18;8.65;;;24.50;74.90;;;;;;5111035;28;20075;-87
2023/07/29 09:38:14;;;;;;;11.23;8.00;;;24.60;75.60;;;;;;5108206;28;20055;-88
2023/07/29 09:40:41;;;;;;;14.85;7.97;;;24.90;74.70;;;;;;5100703;28;20040;-88
2023/07/29 09:43:09;;;;;;;10.35;6.97;;;25.10;75.00;;;;;;5101422;28;20533;-88
2023/07/29 09:45:37;;;;;;;10.80;8.07;;;25.20;74.60;;;;;;5093108;28;20158;-88
2023/07/29 09:48:09;;;;;;;10.90;7.57;;;25.30;74.30;;;;;;5104800;28;20168;-88
2023/07/29 09:50:36;;;;;;;12.75;7.18;;;25.30;73.60;;;;;;5107718;28;20051;-87
2023/07/29 09:53:04;;;;;;;9.02;6.93;;;25.30;73.00;;;;;;5108674;28;20136;-88
2023/07/29 09:55:33;;;;;;;13.40;8.20;;;25.30;73.70;;;;;;5095758;28;20052;-87
2023/07/29 09:58:02;;;;;;;11.80;7.65;;;25.20;73.50;;;;;;5098869;28;20051;-88
2023/07/29 10:00:32;;;;;;;13.18;7.25;;;25.00;74.00;;;;;;5096393;28;20135;-87
2023/07/29 10:02:59;;;;;;;9.82;6.97;;;24.80;74.80;;;;;;5106693;28;20059;-88
2023/07/29 10:05:28;;;;;;;11.57;6.90;;;24.80;75.10;;;;;;5104778;28;20130;-87
2023/07/29 10:07:56;;;;;;;10.93;7.35;;;24.70;75.70;;;;;;5099319;28;20048;-87
2023/07/29 10:10:23;;;;;;;12.15;6.95;;;24.80;75.30;;;;;;5100787;28;20147;-88
2023/07/29 10:12:51;;;;;;;15.00;6.78;;;24.60;74.80;;;;;;5095079;28;20087;-88
2023/07/29 10:15:18;;;;;;;8.68;6.30;;;24.70;75.40;;;;;;5095797;28;20126;-88
2023/07/29 10:17:46;;;;;;;6.57;5.53;;;25.10;75.60;;;;;;5106892;28;20479;-88
2023/07/29 10:20:16;;;;;;;9.30;5.93;;;25.40;73.80;;;;;;5099856;28;20070;-87
2023/07/29 10:22:46;;;;;;;11.18;5.63;;;25.70;72.50;;;;;;5108617;28;20539;-87
2023/07/29 10:25:17;;;;;;;7.10;5.50;;;25.60;71.70;;;;;;5098642;28;20164;-86
2023/07/29 10:27:57;;;;;;;6.75;5.00;;;25.20;72.10;;;;;;5093011;28;20055;-87
2023/07/29 10:30:25;;;;;;;8.18;4.57;;;25.10;74.40;;;;;;5099465;28;20066;-88
2023/07/29 10:32:53;;;;;;;5.43;4.30;;;25.10;74.30;;;;;;5108056;28;20564;-88
2023/07/29 10:35:20;;;;;;;7.50;4.15;;;25.00;73.80;;;;;;5098076;28;20097;-87
2023/07/29 10:37:50;;;;;;;8.30;4.22;;;25.20;73.70;;;;;;5110620;28;20526;-88
2023/07/29 10:40:17;;;;;;;6.97;4.22;;;24.80;73.30;;;;;;5102432;28;20047;-87
2023/07/29 10:43:33;;;;;;;5.63;4.30;;;24.80;73.40;;;;;;5105381;28;20044;-87
2023/07/29 10:46:22;;;;;;;4.07;3.67;;;24.70;74.50;;;;;;5006918;28;20050;-87
2023/07/29 10:48:54;;;;;;;9.02;4.55;;;24.90;75.00;;;;;;5012040;28;20664;-86
2023/07/29 10:51:32;;;;;;;5.93;4.20;;;24.80;73.20;;;;;;5073843;28;20047;-87
2023/07/29 10:54:09;;;;;;;5.45;3.95;;;24.70;73.70;;;;;;5108914;28;20052;-87
2023/07/29 10:56:40;;;;;;;5.90;4.15;;;24.60;74.80;;;;;;5110785;28;20054;-86
2023/07/29 10:59:16;;;;;;;4.97;4.10;;;24.70;75.50;;;;;;5109745;28;20054;-87
2023/07/29 11:01:56;;;;;;;5.28;3.88;;;24.60;74.10;;;;;;5092649;28;20108;-88
2023/07/29 11:04:24;;;;;;;5.88;4.45;;;24.60;73.40;;;;;;5098053;28;20048;-87
2023/07/29 11:07:04;;;;;;;5.53;3.70;;;24.50;73.80;;;;;;5103259;28;20051;-87
2023/07/29 11:09:49;;;;;;;7.38;3.45;;;24.70;74.60;;;;;;5091250;28;20526;-85
2023/07/29 11:12:37;;;;;;;8.02;3.63;;;24.70;72.30;;;;;;5090722;28;20059;-86
2023/07/29 11:15:15;;;;;;;6.38;3.65;;;24.80;73.20;;;;;;5098951;28;20048;-87
2023/07/29 11:17:42;;;;;;;5.70;3.75;;;24.90;73.60;;;;;;5098445;28;20125;-88
2023/07/29 11:20:10;;;;;;;8.73;3.90;;;25.10;73.90;;;;;;5089264;28;20052;-87
2023/07/29 11:22:38;;;;;;;5.53;3.78;;;25.40;73.10;;;;;;5090479;28;20055;-87
2023/07/29 11:25:07;;;;;;;5.00;3.67;;;25.70;72.40;;;;;;5107101;28;20079;-87
2023/07/29 11:27:35;;;;;;;4.15;3.10;;;26.40;70.70;;;;;;5092904;28;20066;-87
2023/07/29 11:30:05;;;;;;;5.80;3.28;;;27.10;68.90;;;;;;5106223;28;20135;-87
2023/07/29 11:32:33;;;;;;;3.70;3.28;;;27.80;69.00;;;;;;5113062;28;20059;-87
2023/07/29 11:35:08;;;;;;;7.97;3.00;;;28.30;66.70;;;;;;5110162;28;20044;-87
2023/07/29 11:37:35;;;;;;;;;;;29.30;65.90;;;;;;5113672;28;20047;-88
2023/07/29 11:40:03;;;;;;;4.47;2.70;;;30.20;61.60;;;;;;5098801;28;20013;-86
2023/07/29 11:42:33;;;;;;;7.40;2.72;;;30.90;60.90;;;;;;5110885;28;20425;-85
2023/07/29 11:45:03;;;;;;;6.60;2.70;;;31.60;56.60;;;;;;5100908;28;20131;-87
2023/07/29 11:47:31;;;;;;;3.00;2.30;;;31.70;56.90;;;;;;5097036;28;20098;-85
2023/07/29 11:50:02;;;;;;;4.28;2.85;;;32.20;53.60;;;;;;5103096;28;20146;-87
2023/07/29 11:52:32;;;;;;;2.42;2.22;;;32.10;55.50;;;;;;5112286;28;20044;-87
2023/07/29 11:55:01;;;;;;;3.28;2.45;;;30.80;55.60;;;;;;5099610;28;20055;-88
2023/07/29 11:57:29;;;;;;;6.30;3.40;;;30.30;57.20;;;;;;5110915;28;20117;-86
2023/07/29 11:59:57;;;;;;;3.10;2.40;;;29.80;59.50;;;;;;5107364;28;20051;-88
2023/07/29 12:02:25;;;;;;;7.47;2.53;;;30.00;61.00;;;;;;5100474;28;20039;-87
2023/07/29 12:04:53;;;;;;;4.38;2.70;;;31.40;58.80;;;;;;5098347;28;20740;-88
2023/07/29 12:07:20;;;;;;;2.50;2.00;;;31.50;57.00;;;;;;5104417;28;20052;-87
2023/07/29 12:09:48;;;;;;;3.45;2.58;;;31.70;54.60;;;;;;5109311;28;20616;-88
2023/07/29 12:12:16;;;;;;;2.92;2.58;;;31.20;56.30;;;;;;5112673;28;20054;-88
2023/07/29 12:14:49;;;;;;;4.30;2.58;;;30.50;56.20;;;;;;5104376;28;20048;-88
2023/07/29 12:17:15;;;;;;;4.72;2.80;;;29.60;57.50;;;;;;5103683;28;20044;-86
2023/07/29 12:19:43;;;;;;;5.65;2.63;;;29.00;58.90;;;;;;5106972;28;20051;-89
2023/07/29 12:22:10;;;;;;;3.33;2.50;;;28.40;60.00;;;;;;5098906;28;20097;-87
2023/07/29 12:24:39;;;;;;;5.40;2.63;;;27.90;60.60;;;;;;5095157;28;20128;-86
2023/07/29 12:27:15;;;;;;;3.10;2.53;;;27.30;62.20;;;;;;5097115;28;20051;-86
2023/07/29 12:29:43;;;;;;;4.10;3.15;;;26.90;63.90;;;;;;5098826;28;20052;-84
2023/07/29 12:32:10;;;;;;;5.57;2.78;;;26.20;63.60;;;;;;5111176;28;20514;-87
2023/07/29 12:34:39;;;;;;;5.95;3.00;;;25.90;64.10;;;;;;5099554;28;20131;-87
2023/07/29 12:37:07;;;;;;;5.60;2.78;;;25.20;66.70;;;;;;5097940;28;20071;-86
2023/07/29 12:39:39;;;;;;;4.10;3.05;;;24.50;73.00;;;;;;5098878;28;20472;-86
2023/07/29 12:42:06;;;;;;;6.22;2.60;;;23.30;78.80;;;;;;5103638;28;20691;-90
2023/07/29 12:44:36;;;;;;;20.38;2.95;;;22.40;82.00;;;;;;5104639;28;20047;-85
2023/07/29 12:47:05;;;;;;;10.45;2.90;;;21.60;85.10;;;;;;5111146;28;20047;-84
2023/07/29 12:49:32;;;;;;;8.88;2.92;;;20.90;91.90;;;;;;5097371;28;20083;-86